createdAt,value
2018-01-02T00:00:39.161Z,12.80
2018-01-02T00:03:06.582Z,14.20
2018-01-02T00:05:34.795Z,11.30
2018-01-02T00:08:02.221Z,18.60
2018-01-02T00:10:30.422Z,7.10
2018-01-02T00:12:57.869Z,9.97
2018-01-02T00:15:25.372Z,14.87
2018-01-02T00:17:52.814Z,15.53
2018-01-02T00:20:20.277Z,12.90
2018-01-02T00:22:47.744Z,14.47
2018-01-02T00:25:15.189Z,12.63
2018-01-02T00:27:43.668Z,13.90
2018-01-02T00:30:11.111Z,16.77
2018-01-02T00:32:38.526Z,16.27
2018-01-02T00:35:06.729Z,20.57
2018-01-02T00:37:34.152Z,13.47
2018-01-02T00:40:02.352Z,25.13
2018-01-02T00:42:30.147Z,27.77
2018-01-02T00:44:57.577Z,16.07
2018-01-02T00:47:25.008Z,32.23
2018-01-02T00:49:53.236Z,21.70
2018-01-02T00:52:21.516Z,30.10
2018-01-02T00:54:48.960Z,26.17
2018-01-02T00:57:16.380Z,33.83
2018-01-02T00:59:44.578Z,25.33
2018-01-02T01:02:12.001Z,21.83
2018-01-02T01:04:40.206Z,23.73
2018-01-02T01:07:07.696Z,25.83
2018-01-02T01:09:35.148Z,21.80
2018-01-02T01:12:02.610Z,19.60
2018-01-02T01:14:30.046Z,21.10
2018-01-02T01:16:57.524Z,21.70
2018-01-02T01:19:25.100Z,24.30
2018-01-02T01:21:52.522Z,19.13
2018-01-02T01:24:19.990Z,20.07
2018-01-02T01:26:47.453Z,20.87
2018-01-02T01:29:14.909Z,17.80
2018-01-02T01:31:42.336Z,19.63
2018-01-02T01:34:09.778Z,10.50
2018-01-02T01:36:37.993Z,22.73
2018-01-02T01:39:05.424Z,19.00
2018-01-02T01:41:32.865Z,19.33
2018-01-02T01:44:01.062Z,21.27
2018-01-02T01:46:28.488Z,19.30
2018-01-02T01:48:56.714Z,16.73
2018-01-02T01:51:24.210Z,23.23
2018-01-02T01:53:51.732Z,20.53
2018-01-02T01:56:19.175Z,27.53
2018-01-02T01:58:46.640Z,28.10
2018-01-02T02:01:14.092Z,21.60
2018-01-02T02:03:41.512Z,15.63
2018-01-02T02:06:09.740Z,21.07
2018-01-02T02:08:37.168Z,17.00
2018-01-02T02:11:04.657Z,25.93
2018-01-02T02:13:32.076Z,21.53
2018-01-02T02:15:59.503Z,20.77
2018-01-02T02:18:26.944Z,18.57
2018-01-02T02:20:54.369Z,25.50
2018-01-02T02:23:21.804Z,20.30
2018-01-02T02:25:49.254Z,18.90
2018-01-02T02:28:16.684Z,20.30
2018-01-02T02:30:44.112Z,20.77
2018-01-02T02:33:11.556Z,17.93
2018-01-02T02:35:38.987Z,25.17
2018-01-02T02:38:06.468Z,15.13
2018-01-02T02:40:45.704Z,24.97
2018-01-02T02:43:13.186Z,20.40
2018-01-02T02:45:40.609Z,23.37
2018-01-02T02:48:08.076Z,25.37
2018-01-02T02:50:35.504Z,27.73
2018-01-02T02:53:02.937Z,13.63
2018-01-02T02:55:31.155Z,22.20
2018-01-02T02:57:58.579Z,23.97
2018-01-02T03:00:26.788Z,25.67
2018-01-02T03:02:54.248Z,21.87
2018-01-02T03:05:21.680Z,17.07
2018-01-02T03:07:49.109Z,20.30
2018-01-02T03:10:16.624Z,20.47
2018-01-02T03:12:44.075Z,31.37
2018-01-02T03:15:11.504Z,21.80
2018-01-02T03:17:39.751Z,16.50
2018-01-02T03:20:07.173Z,19.50
2018-01-02T03:22:34.603Z,28.07
2018-01-02T03:25:02.057Z,29.30
2018-01-02T03:27:29.484Z,36.37
2018-01-02T03:29:56.995Z,24.03
2018-01-02T03:32:24.460Z,27.47
2018-01-02T03:34:51.912Z,26.00
2018-01-02T03:37:19.342Z,30.10
2018-01-02T03:39:46.780Z,30.83
2018-01-02T03:42:14.975Z,28.87
2018-01-02T03:44:42.464Z,26.33
2018-01-02T03:47:09.911Z,24.10
2018-01-02T03:49:37.344Z,34.43
2018-01-02T03:52:04.835Z,24.40
2018-01-02T03:54:32.288Z,32.93
2018-01-02T03:56:59.720Z,31.57
2018-01-02T03:59:27.158Z,32.43
2018-01-02T04:01:55.376Z,29.30
2018-01-02T04:04:22.828Z,36.47
2018-01-02T04:06:50.274Z,31.23
2018-01-02T04:09:17.752Z,33.17
2018-01-02T04:11:45.220Z,31.07
2018-01-02T04:14:12.668Z,30.63
2018-01-02T04:16:40.120Z,22.10
2018-01-02T04:19:07.588Z,40.70
2018-01-02T04:21:35.032Z,34.50
2018-01-02T04:24:02.468Z,30.87
2018-01-02T04:26:29.940Z,31.70
2018-01-02T04:28:57.405Z,34.87
2018-01-02T04:31:24.872Z,28.93
2018-01-02T04:33:52.317Z,33.63
2018-01-02T04:36:19.780Z,32.50
2018-01-02T04:38:47.260Z,30.17
2018-01-02T04:41:14.696Z,22.10
2018-01-02T04:43:42.149Z,30.87
2018-01-02T04:46:09.613Z,22.67
2018-01-02T04:48:37.063Z,40.73
2018-01-02T04:51:04.492Z,25.03
2018-01-02T04:53:31.989Z,28.47
2018-01-02T04:55:59.424Z,32.40
2018-01-02T04:58:26.896Z,27.80
2018-01-02T05:00:55.054Z,29.80
2018-01-02T05:03:22.531Z,23.87
2018-01-02T05:05:49.952Z,26.13
2018-01-02T05:08:17.442Z,26.70
2018-01-02T05:10:44.905Z,20.70
2018-01-02T05:13:12.324Z,20.67
2018-01-02T05:15:39.766Z,24.43
2018-01-02T05:18:07.976Z,17.30
2018-01-02T05:20:35.440Z,27.20
2018-01-02T05:23:02.895Z,16.03
2018-01-02T05:25:30.356Z,11.57
2018-01-02T05:27:57.784Z,19.83
2018-01-02T05:30:25.221Z,17.40
2018-01-02T05:32:53.412Z,18.57
2018-01-02T05:35:20.860Z,23.50
2018-01-02T05:37:49.179Z,14.10
2018-01-02T05:40:16.604Z,22.83
2018-01-02T05:42:44.036Z,22.83
2018-01-02T05:45:11.480Z,22.87
2018-01-02T05:47:38.928Z,14.57
2018-01-02T05:50:06.345Z,15.67
2018-01-02T05:52:33.807Z,14.33
2018-01-02T05:55:01.212Z,19.50
2018-01-02T05:57:28.661Z,22.67
2018-01-02T05:59:56.104Z,19.93
2018-01-02T06:02:23.535Z,13.77
2018-01-02T06:04:51.008Z,26.03
2018-01-02T06:07:18.560Z,21.03
2018-01-02T06:09:46.009Z,28.73
2018-01-02T06:12:13.440Z,24.47
2018-01-02T06:14:40.932Z,25.20
2018-01-02T06:17:08.364Z,33.90
2018-01-02T06:19:35.791Z,16.50
2018-01-02T06:22:03.992Z,28.23
2018-01-02T06:24:31.421Z,22.70
2018-01-02T06:26:58.932Z,25.17
2018-01-02T06:29:26.386Z,25.83
2018-01-02T06:31:53.820Z,18.27
2018-01-02T06:34:21.249Z,26.17
2018-01-02T06:36:49.481Z,19.97
2018-01-02T06:39:16.932Z,24.27
2018-01-02T06:41:44.368Z,20.83
2018-01-02T06:44:11.848Z,20.30
2018-01-02T06:46:39.308Z,22.63
2018-01-02T06:49:06.732Z,16.37
2018-01-02T06:51:34.170Z,24.77
2018-01-02T06:54:02.383Z,23.57
2018-01-02T06:56:29.848Z,20.70
2018-01-02T06:58:57.288Z,12.43
2018-01-02T07:01:24.721Z,21.20
2018-01-02T07:03:52.921Z,12.93
2018-01-02T07:06:20.404Z,13.60
2018-01-02T07:08:47.857Z,20.33
2018-01-02T07:11:15.297Z,14.63
2018-01-02T07:13:42.744Z,14.00
2018-01-02T07:16:10.178Z,11.43
2018-01-02T07:18:40.652Z,19.67
2018-01-02T07:21:08.092Z,22.50
2018-01-02T07:23:35.568Z,21.00
2018-01-02T07:26:03.491Z,14.57
2018-01-02T07:28:31.693Z,17.47
2018-01-02T07:30:59.168Z,13.17
2018-01-02T07:33:26.600Z,23.93
2018-01-02T07:35:54.041Z,10.63
2018-01-02T07:38:22.351Z,12.07
2018-01-02T07:40:49.777Z,20.90
2018-01-02T07:43:17.992Z,9.73
2018-01-02T07:45:45.428Z,17.40
2018-01-02T07:48:12.856Z,18.57
2018-01-02T07:50:41.060Z,15.87
2018-01-02T07:53:08.538Z,12.20
2018-01-02T07:55:36.003Z,14.90
2018-01-02T07:58:03.437Z,18.33
2018-01-02T08:00:30.910Z,23.70
2018-01-02T08:02:58.328Z,16.47
2018-01-02T08:05:25.777Z,15.60
2018-01-02T08:07:54.000Z,11.17
2018-01-02T08:10:21.430Z,14.03
2018-01-02T08:12:48.925Z,14.77
2018-01-02T08:15:16.372Z,22.57
2018-01-02T08:17:43.796Z,14.10
2018-01-02T08:20:11.248Z,14.30
2018-01-02T08:25:04.441Z,13.83
2018-01-02T08:27:31.869Z,13.40
2018-01-02T08:30:00.182Z,9.40
2018-01-02T08:32:27.597Z,13.33
2018-01-02T08:34:55.796Z,15.00
2018-01-02T08:37:23.231Z,14.13
2018-01-02T08:39:51.456Z,19.10
2018-01-02T08:42:18.901Z,15.17
2018-01-02T08:44:46.324Z,10.77
2018-01-02T08:47:15.006Z,10.17
2018-01-02T08:49:43.328Z,10.93
2018-01-02T08:52:10.788Z,15.43
2018-01-02T08:54:38.216Z,15.37
2018-01-02T08:57:05.694Z,13.27
2018-01-02T08:59:33.108Z,10.13
2018-01-02T09:02:01.340Z,13.80
2018-01-02T09:04:28.789Z,9.73
2018-01-02T09:06:56.244Z,12.23
2018-01-02T09:09:23.672Z,17.50
2018-01-02T09:11:51.160Z,23.27
2018-01-02T09:14:18.621Z,11.17
2018-01-02T09:16:46.076Z,13.87
2018-01-02T09:19:13.516Z,15.37
2018-01-02T09:21:40.995Z,22.90
2018-01-02T09:24:08.420Z,15.80
2018-01-02T09:26:35.900Z,11.13
2018-01-02T09:29:03.328Z,9.30
2018-01-02T09:31:30.765Z,15.43
2018-01-02T09:33:58.989Z,12.10
2018-01-02T09:36:26.440Z,15.17
2018-01-02T09:38:53.862Z,7.90
2018-01-02T09:41:22.084Z,12.63
2018-01-02T09:43:49.515Z,15.43
2018-01-02T09:46:16.936Z,15.20
2018-01-02T09:48:45.164Z,9.27
2018-01-02T09:51:12.636Z,13.90
2018-01-02T09:53:40.088Z,13.97
2018-01-02T09:56:07.544Z,13.30
2018-01-02T09:58:34.976Z,12.77
2018-01-02T10:01:02.396Z,8.70
2018-01-02T10:03:29.922Z,11.87
2018-01-02T10:05:57.374Z,19.87
2018-01-02T10:08:24.803Z,16.50
2018-01-02T10:10:52.236Z,20.53
2018-01-02T10:13:20.432Z,25.87
2018-01-02T10:15:47.920Z,15.77
2018-01-02T10:18:15.401Z,18.83
2018-01-02T10:20:42.833Z,16.73
2018-01-02T10:23:10.267Z,11.97
2018-01-02T10:25:37.692Z,27.27
2018-01-02T10:28:05.896Z,11.67
2018-01-02T10:30:33.324Z,22.77
2018-01-02T10:33:01.533Z,12.07
2018-01-02T10:35:28.966Z,15.27
2018-01-02T10:37:57.185Z,12.60
2018-01-02T10:40:24.628Z,19.23
2018-01-02T10:42:52.056Z,18.30
2018-01-02T10:45:20.248Z,13.90
2018-01-02T10:47:47.704Z,14.47
2018-01-02T10:50:15.189Z,15.97
2018-01-02T10:52:42.636Z,17.20
2018-01-02T10:55:10.129Z,11.43
2018-01-02T10:57:37.553Z,14.60
2018-01-02T11:00:04.987Z,17.10
2018-01-02T11:02:32.469Z,15.97
2018-01-02T11:04:59.910Z,23.30
2018-01-02T11:07:27.336Z,16.43
2018-01-02T11:09:55.547Z,14.47
2018-01-02T11:12:28.560Z,15.97
2018-01-02T11:14:56.009Z,19.10
2018-01-02T11:17:23.452Z,19.63
2018-01-02T11:19:50.916Z,16.60
2018-01-02T11:22:18.361Z,13.17
2018-01-02T11:24:45.788Z,12.07
2018-01-02T11:27:13.980Z,15.27
2018-01-02T11:29:41.404Z,10.50
2018-01-02T11:32:09.600Z,12.17
2018-01-02T11:34:37.029Z,12.97
2018-01-02T11:37:05.240Z,12.90
2018-01-02T11:39:34.715Z,12.33
2018-01-02T11:42:02.236Z,15.40
2018-01-02T11:44:31.316Z,17.67
2018-01-02T11:46:58.820Z,16.87
2018-01-02T11:49:26.255Z,14.43
2018-01-02T11:51:53.812Z,11.27
2018-01-02T11:54:21.244Z,16.43
2018-01-02T11:56:48.712Z,14.83
2018-01-02T11:59:16.152Z,16.30
2018-01-02T12:01:43.588Z,15.80
2018-01-02T12:04:11.790Z,18.13
2018-01-02T12:06:39.247Z,16.13
2018-01-02T12:09:06.676Z,15.07
2018-01-02T12:11:34.882Z,13.43
2018-01-02T12:14:02.335Z,15.57
2018-01-02T12:16:29.803Z,13.53
2018-01-02T12:18:57.250Z,14.37
2018-01-02T12:21:24.690Z,23.40
2018-01-02T12:23:52.185Z,27.23
2018-01-02T12:26:19.625Z,15.20
2018-01-02T12:28:47.052Z,17.43
2018-01-02T12:31:14.480Z,32.43
2018-01-02T12:33:41.912Z,31.37
2018-01-02T12:36:09.456Z,18.87
2018-01-02T12:38:36.922Z,18.63
2018-01-02T12:41:04.355Z,23.70
2018-01-02T12:43:31.795Z,16.67
2018-01-02T12:46:00.007Z,17.67
2018-01-02T12:48:27.556Z,21.37
2018-01-02T12:50:54.985Z,24.57
2018-01-02T12:53:22.424Z,19.93
2018-01-02T12:55:49.852Z,19.07
2018-01-02T12:58:17.296Z,17.80
2018-01-02T13:00:44.741Z,16.97
2018-01-02T13:03:12.154Z,22.63
2018-01-02T13:05:40.389Z,22.50
2018-01-02T13:08:07.830Z,22.37
2018-01-02T13:10:35.300Z,26.07
2018-01-02T13:13:02.748Z,27.43
2018-01-02T13:15:30.221Z,17.33
2018-01-02T13:17:57.660Z,24.70
2018-01-02T13:20:25.125Z,20.57
2018-01-02T13:22:52.560Z,24.13
2018-01-02T13:25:20.003Z,17.90
2018-01-02T13:27:48.199Z,20.20
2018-01-02T13:30:15.624Z,22.40
2018-01-02T13:32:43.821Z,27.27
2018-01-02T13:35:11.264Z,19.33
2018-01-02T13:37:38.757Z,24.33
2018-01-02T13:40:06.203Z,22.00
2018-01-02T13:42:33.680Z,25.70
2018-01-02T13:45:01.112Z,25.07
2018-01-02T13:47:28.592Z,20.07
2018-01-02T13:49:56.031Z,26.33
2018-01-02T13:52:23.456Z,18.53
2018-01-02T13:54:51.682Z,19.67
2018-01-02T13:57:19.132Z,27.03
2018-01-02T13:59:46.577Z,22.53
2018-01-02T14:02:14.044Z,37.00
2018-01-02T14:04:41.499Z,24.03
2018-01-02T14:07:08.960Z,23.83
2018-01-02T14:09:36.412Z,28.70
2018-01-02T14:12:03.876Z,17.93
2018-01-02T14:14:31.368Z,27.80
2018-01-02T14:16:58.892Z,24.50
2018-01-02T14:19:26.352Z,22.17
2018-01-02T14:21:53.818Z,26.03
2018-01-02T14:24:21.254Z,25.30
2018-01-02T14:26:48.697Z,38.07
2018-01-02T14:29:16.128Z,30.77
2018-01-02T14:31:44.357Z,21.90
2018-01-02T14:34:11.808Z,24.27
2018-01-02T14:36:39.264Z,29.20
2018-01-02T14:39:06.698Z,28.47
2018-01-02T14:41:34.144Z,27.40
2018-01-02T14:44:01.573Z,24.13
2018-01-02T14:46:28.996Z,19.00
2018-01-02T14:48:56.444Z,25.03
2018-01-02T14:51:23.926Z,31.37
2018-01-02T14:53:51.365Z,28.67
2018-01-02T14:56:18.821Z,29.20
2018-01-02T14:58:46.276Z,33.93
2018-01-02T15:01:13.732Z,29.03
2018-01-02T15:03:41.202Z,28.80
2018-01-02T15:06:08.633Z,27.63
2018-01-02T15:08:36.112Z,23.27
2018-01-02T15:11:03.572Z,20.80
2018-01-02T15:13:31.020Z,29.23
2018-01-02T15:15:58.467Z,24.57
2018-01-02T15:18:25.904Z,23.73
2018-01-02T15:20:53.337Z,31.00
2018-01-02T15:23:20.765Z,23.57
2018-01-02T15:25:48.202Z,23.07
2018-01-02T15:28:15.632Z,25.27
2018-01-02T15:30:43.056Z,25.60
2018-01-02T15:33:11.277Z,21.53
2018-01-02T15:35:38.700Z,26.67
2018-01-02T15:38:06.920Z,26.33
2018-01-02T15:40:34.361Z,16.37
2018-01-02T15:43:01.794Z,20.80
2018-01-02T15:45:30.032Z,16.57
2018-01-02T15:47:57.572Z,21.60
2018-01-02T15:50:25.000Z,21.67
2018-01-02T15:52:52.437Z,27.27
2018-01-02T15:55:21.277Z,17.97
2018-01-02T15:57:48.770Z,21.63
2018-01-02T16:00:16.210Z,20.90
2018-01-02T16:02:43.669Z,23.77
2018-01-02T16:05:11.210Z,25.77
2018-01-02T16:07:38.636Z,24.70
2018-01-02T16:10:06.116Z,20.57
2018-01-02T16:12:33.556Z,25.93
2018-01-02T16:15:00.988Z,22.00
2018-01-02T16:17:29.200Z,27.03
2018-01-02T16:19:56.682Z,18.37
2018-01-02T16:22:24.100Z,23.60
2018-01-02T16:24:51.532Z,24.47
2018-01-02T16:27:19.725Z,22.77
2018-01-02T16:29:47.156Z,21.47
2018-01-02T16:32:15.373Z,20.47
2018-01-02T16:34:42.798Z,20.00
2018-01-02T16:37:11.021Z,26.40
2018-01-02T16:39:38.472Z,31.83
2018-01-02T16:42:05.908Z,24.00
2018-01-02T16:44:33.399Z,23.63
2018-01-02T16:47:00.868Z,27.83
2018-01-02T16:49:28.300Z,24.07
2018-01-02T16:51:55.732Z,29.00
2018-01-02T16:54:23.192Z,28.93
2018-01-02T16:56:50.619Z,22.53
2018-01-02T16:59:18.821Z,26.47
2018-01-02T17:01:46.308Z,25.90
2018-01-02T17:04:13.747Z,30.23
2018-01-02T17:06:41.164Z,24.33
2018-01-02T17:09:09.398Z,24.83
2018-01-02T17:11:36.840Z,29.40
2018-01-02T17:14:04.312Z,26.40
2018-01-02T17:16:31.762Z,22.47
2018-01-02T17:18:59.190Z,30.93
2018-01-02T17:21:26.676Z,28.00
2018-01-02T17:23:54.157Z,36.73
2018-01-02T17:26:21.582Z,29.63
2018-01-02T17:28:49.014Z,21.83
2018-01-02T17:31:17.213Z,28.57
2018-01-02T17:33:44.688Z,25.23
2018-01-02T17:36:12.122Z,20.80
2018-01-02T17:38:39.589Z,27.07
2018-01-02T17:41:07.012Z,24.50
2018-01-02T17:43:35.214Z,33.83
2018-01-02T17:46:02.662Z,31.13
2018-01-02T17:48:30.862Z,34.37
2018-01-02T17:50:58.285Z,17.00
2018-01-02T17:53:25.716Z,29.93
2018-01-02T17:55:53.912Z,27.43
2018-01-02T17:58:22.113Z,26.77
2018-01-02T18:00:49.560Z,22.77
2018-01-02T18:03:17.037Z,26.57
2018-01-02T18:05:44.470Z,25.70
2018-01-02T18:08:12.044Z,25.60
2018-01-02T18:10:39.498Z,19.30
2018-01-02T18:13:06.970Z,25.63
2018-01-02T18:15:34.443Z,27.70
2018-01-02T18:18:01.873Z,24.57
2018-01-02T18:20:29.342Z,26.93
2018-01-02T18:22:56.782Z,19.77
2018-01-02T18:25:24.216Z,26.20
2018-01-02T18:27:52.406Z,22.07
2018-01-02T18:30:19.856Z,22.90
2018-01-02T18:32:47.281Z,22.90
2018-01-02T18:35:15.476Z,31.20
2018-01-02T18:37:43.699Z,23.03
2018-01-02T18:40:11.148Z,25.07
2018-01-02T18:42:38.596Z,30.23
2018-01-02T18:45:06.032Z,24.07
2018-01-02T18:47:33.456Z,24.27
2018-01-02T18:50:01.656Z,19.80
2018-01-02T18:52:29.968Z,20.40
2018-01-02T18:54:57.517Z,22.13
2018-01-02T18:57:24.920Z,19.50
2018-01-02T18:59:53.168Z,17.77
2018-01-02T19:02:20.632Z,26.43
2018-01-02T19:04:48.056Z,20.07
2018-01-02T19:07:15.500Z,16.97
2018-01-02T19:09:42.980Z,11.53
2018-01-02T19:12:10.460Z,11.57
2018-01-02T19:14:37.902Z,13.50
2018-01-02T19:17:05.361Z,18.77
2018-01-02T19:19:32.805Z,19.30
2018-01-02T19:22:00.251Z,15.63
2018-01-02T19:24:27.736Z,17.23
2018-01-02T19:26:55.192Z,14.37
2018-01-02T19:29:22.653Z,13.57
2018-01-02T19:31:50.099Z,13.70
2018-01-02T19:34:17.537Z,10.87
2018-01-02T19:36:45.017Z,11.23
2018-01-02T19:39:12.565Z,7.20
2018-01-02T19:41:39.965Z,8.77
2018-01-02T19:44:07.488Z,6.13
2018-01-02T19:46:34.979Z,6.77
2018-01-02T19:49:02.402Z,7.80
2018-01-02T19:51:29.862Z,10.57
2018-01-02T19:53:57.323Z,12.57
2018-01-02T19:56:24.780Z,10.27
2018-01-02T19:58:52.267Z,10.80
2018-01-02T20:01:19.685Z,8.67
2018-01-02T20:03:47.152Z,11.87
2018-01-02T20:06:14.608Z,8.53
2018-01-02T20:08:42.069Z,9.77
2018-01-02T20:11:09.516Z,13.63
2018-01-02T20:13:36.968Z,12.43
2018-01-02T20:16:04.397Z,12.27
2018-01-02T20:18:37.556Z,9.53
2018-01-02T20:21:04.988Z,10.30
2018-01-02T20:23:32.456Z,13.40
2018-01-02T20:25:59.900Z,16.37
2018-01-02T20:28:27.353Z,10.37
2018-01-02T20:30:54.793Z,10.47
2018-01-02T20:33:25.953Z,12.80
2018-01-02T20:35:53.395Z,14.90
2018-01-02T20:38:20.873Z,12.50
2018-01-02T20:40:48.312Z,12.90
2018-01-02T20:43:15.784Z,17.03
2018-01-02T20:45:43.330Z,17.97
2018-01-02T20:48:10.801Z,13.60
2018-01-02T20:50:38.234Z,16.67
2018-01-02T20:53:05.666Z,20.00
2018-01-02T20:55:33.891Z,20.43
2018-01-02T20:58:01.326Z,19.47
2018-01-02T21:00:28.752Z,20.23
2018-01-02T21:02:56.962Z,23.10
2018-01-02T21:05:24.444Z,24.53
2018-01-02T21:07:51.896Z,24.87
2018-01-02T21:10:19.449Z,25.60
2018-01-02T21:12:46.895Z,25.97
2018-01-02T21:15:14.377Z,25.70
2018-01-02T21:17:41.822Z,25.90
2018-01-02T21:20:09.261Z,31.50
2018-01-02T21:22:36.733Z,34.63
2018-01-02T21:25:04.201Z,32.90
2018-01-02T21:27:31.638Z,32.33
2018-01-02T21:29:59.104Z,32.57
2018-01-02T21:32:26.556Z,33.70
2018-01-02T21:34:53.993Z,37.50
2018-01-02T21:37:21.490Z,34.73
2018-01-02T21:39:48.944Z,38.53
2018-01-02T21:42:16.388Z,35.50
2018-01-02T21:44:43.856Z,42.13
2018-01-02T21:47:11.300Z,39.97
2018-01-02T21:49:38.739Z,39.77
2018-01-02T21:52:06.227Z,41.30
2018-01-02T21:54:33.785Z,43.97
2018-01-02T21:57:01.584Z,42.03
2018-01-02T21:59:30.629Z,42.50
2018-01-02T22:01:58.048Z,46.80
2018-01-02T22:04:26.272Z,48.87
2018-01-02T22:06:53.704Z,45.43
2018-01-02T22:09:21.185Z,43.30
2018-01-02T22:11:48.645Z,43.73
2018-01-02T22:14:16.104Z,48.73
2018-01-02T22:16:43.560Z,48.57
2018-01-02T22:19:11.005Z,39.00
2018-01-02T22:21:38.424Z,45.83
2018-01-02T22:24:05.868Z,48.37
2018-01-02T22:26:33.363Z,43.70
2018-01-02T22:29:00.781Z,45.07
2018-01-02T22:31:28.221Z,44.53
2018-01-02T22:33:55.660Z,44.70
2018-01-02T22:36:23.872Z,42.73
2018-01-02T22:38:51.328Z,48.67
2018-01-02T22:41:18.777Z,47.20
2018-01-02T22:43:46.188Z,43.20
2018-01-02T22:46:14.408Z,53.60
2018-01-02T22:48:41.878Z,41.50
2018-01-02T22:51:09.308Z,44.27
2018-01-02T22:53:36.752Z,42.23
2018-01-02T22:56:04.956Z,37.50
2018-01-02T22:58:32.412Z,38.00
2018-01-02T23:00:59.836Z,45.13
2018-01-02T23:03:28.060Z,35.57
2018-01-02T23:05:55.519Z,38.40
2018-01-02T23:08:22.963Z,29.10
2018-01-02T23:10:50.397Z,29.20
2018-01-02T23:13:17.891Z,25.00
2018-01-02T23:15:45.336Z,27.93
2018-01-02T23:18:12.776Z,27.33
2018-01-02T23:20:40.272Z,27.93
2018-01-02T23:23:07.818Z,29.13
2018-01-02T23:25:35.364Z,34.47
2018-01-02T23:28:02.780Z,33.33
2018-01-02T23:30:30.992Z,37.40
2018-01-02T23:32:58.464Z,36.13
2018-01-02T23:35:25.952Z,26.00
2018-01-02T23:37:54.187Z,27.93
2018-01-02T23:40:21.600Z,35.50
2018-01-02T23:42:49.796Z,31.97
2018-01-02T23:45:17.304Z,33.83
2018-01-02T23:47:44.841Z,31.87
2018-01-02T23:50:13.220Z,40.83
2018-01-02T23:52:40.677Z,30.57
2018-01-02T23:55:08.105Z,32.27
2018-01-02T23:57:35.592Z,40.90
